createdAt,value
2023-10-28T00:01:07.496Z,32.67
2023-10-28T00:03:34.572Z,35.60
2023-10-28T00:06:02.395Z,36.53
2023-10-28T00:08:29.542Z,34.15
2023-10-28T00:10:56.801Z,37.28
2023-10-28T00:13:24.077Z,35.80
2023-10-28T00:15:50.915Z,25.85
2023-10-28T00:18:17.766Z,32.25
2023-10-28T00:20:46.443Z,40.50
2023-10-28T00:23:15.470Z,35.60
2023-10-28T00:25:43.079Z,39.55
2023-10-28T00:28:10.688Z,37.50
2023-10-28T00:30:41.499Z,35.85
2023-10-28T00:33:08.739Z,32.15
2023-10-28T00:35:37.532Z,36.88
2023-10-28T00:38:05.192Z,37.13
2023-10-28T00:40:32.681Z,38.28
2023-10-28T00:43:00.226Z,37.83
2023-10-28T00:45:28.669Z,35.75
2023-10-28T00:47:57.731Z,36.33
2023-10-28T00:50:25.171Z,37.53
2023-10-28T00:52:55.333Z,46.08
2023-10-28T00:55:24.204Z,34.65
2023-10-28T00:57:51.747Z,50.15
2023-10-28T01:00:19.138Z,44.60
2023-10-28T01:02:46.426Z,53.70
2023-10-28T01:05:15.046Z,55.78
2023-10-28T01:07:44.710Z,43.72
2023-10-28T01:10:11.873Z,51.42
2023-10-28T01:12:39.034Z,47.08
2023-10-28T01:15:07.151Z,48.38
2023-10-28T01:17:34.238Z,46.58
2023-10-28T01:20:01.253Z,49.15
2023-10-28T01:22:28.135Z,52.50
2023-10-28T01:24:56.050Z,46.28
2023-10-28T01:27:22.932Z,40.35
2023-10-28T01:29:49.762Z,37.10
2023-10-28T01:32:16.693Z,43.35
2023-10-28T01:34:54.468Z,45.22
2023-10-28T01:37:22.302Z,38.35
2023-10-28T01:39:52.881Z,39.15
2023-10-28T01:42:21.780Z,42.65
2023-10-28T01:44:49.523Z,37.85
2023-10-28T01:47:17.026Z,41.17
2023-10-28T01:49:44.814Z,48.13
2023-10-28T01:52:13.542Z,51.17
2023-10-28T01:54:40.683Z,42.53
2023-10-28T01:57:09.014Z,58.88
2023-10-28T01:59:39.527Z,41.78
2023-10-28T02:02:06.868Z,39.08
2023-10-28T02:04:34.590Z,30.90
2023-10-28T02:07:02.106Z,42.38
2023-10-28T02:09:29.610Z,33.00
2023-10-28T02:11:57.350Z,44.67
2023-10-28T02:14:25.771Z,52.88
2023-10-28T02:16:53.413Z,36.30
2023-10-28T02:19:21.631Z,44.95
2023-10-28T02:22:02.669Z,37.22
2023-10-28T02:24:38.882Z,35.25
2023-10-28T02:27:06.250Z,31.98
2023-10-28T02:29:34.174Z,32.33
2023-10-28T02:32:01.093Z,33.58
2023-10-28T02:34:28.584Z,34.33
2023-10-28T02:36:55.509Z,33.75
2023-10-28T02:39:22.577Z,44.28
2023-10-28T02:41:49.515Z,35.20
2023-10-28T02:44:16.717Z,40.08
2023-10-28T02:46:43.872Z,33.50
2023-10-28T02:49:10.745Z,31.13
2023-10-28T02:51:37.625Z,32.90
2023-10-28T02:54:04.934Z,33.40
2023-10-28T02:56:32.189Z,36.22
2023-10-28T02:58:59.074Z,46.97
2023-10-28T03:01:27.030Z,35.83
2023-10-28T03:03:54.039Z,31.83
2023-10-28T03:06:20.905Z,34.05
2023-10-28T03:08:47.853Z,33.42
2023-10-28T03:11:14.833Z,37.90
2023-10-28T03:13:41.797Z,39.55
2023-10-28T03:16:09.858Z,28.33
2023-10-28T03:18:36.897Z,29.50
2023-10-28T03:21:03.907Z,30.67
2023-10-28T03:23:30.781Z,33.80
2023-10-28T03:25:57.757Z,34.83
2023-10-28T03:28:24.692Z,24.90
2023-10-28T03:30:51.767Z,30.27
2023-10-28T03:33:18.690Z,26.30
2023-10-28T03:35:46.032Z,27.25
2023-10-28T03:38:12.931Z,24.50
2023-10-28T03:40:40.758Z,29.90
2023-10-28T03:43:07.817Z,34.10
2023-10-28T03:45:39.014Z,31.63
2023-10-28T03:48:06.280Z,35.08
2023-10-28T03:50:33.160Z,30.88
2023-10-28T03:53:00.162Z,29.00
2023-10-28T03:55:27.127Z,24.20
2023-10-28T03:57:55.297Z,25.83
2023-10-28T04:00:23.098Z,27.85
2023-10-28T04:02:51.294Z,33.97
2023-10-28T04:05:19.435Z,35.83
2023-10-28T04:07:46.607Z,31.17
2023-10-28T04:10:13.693Z,30.27
2023-10-28T04:12:41.026Z,41.60
2023-10-28T04:15:08.444Z,32.20
2023-10-28T04:17:35.579Z,27.73
2023-10-28T04:20:02.559Z,25.80
2023-10-28T04:22:30.350Z,28.52
2023-10-28T04:24:57.548Z,30.60
2023-10-28T04:27:24.603Z,34.95
2023-10-28T04:29:51.989Z,26.98
2023-10-28T04:32:21.546Z,25.90
2023-10-28T04:34:56.378Z,27.83
2023-10-28T04:37:27.885Z,33.15
2023-10-28T04:39:54.766Z,26.40
2023-10-28T04:42:21.629Z,20.17
2023-10-28T04:44:48.546Z,24.45
2023-10-28T04:47:15.464Z,29.17
2023-10-28T04:49:43.129Z,23.52
2023-10-28T04:52:10.167Z,25.30
2023-10-28T04:54:38.193Z,23.85
2023-10-28T04:57:05.182Z,31.40
2023-10-28T04:59:32.136Z,22.08
2023-10-28T05:01:59.238Z,32.92
2023-10-28T05:04:26.543Z,23.90
2023-10-28T05:06:53.703Z,30.25
2023-10-28T05:09:23.783Z,18.10
2023-10-28T05:11:57.756Z,28.80
2023-10-28T05:14:24.978Z,23.05
2023-10-28T05:16:53.966Z,25.55
2023-10-28T05:19:23.462Z,22.08
2023-10-28T05:21:50.940Z,28.02
2023-10-28T05:24:18.367Z,31.95
2023-10-28T05:26:45.479Z,29.70
2023-10-28T05:29:12.492Z,27.77
2023-10-28T05:31:39.464Z,30.02
2023-10-28T05:34:06.425Z,22.45
2023-10-28T05:36:33.333Z,35.47
2023-10-28T05:39:00.712Z,27.60
2023-10-28T05:41:27.628Z,22.13
2023-10-28T05:43:54.549Z,16.60
2023-10-28T05:46:24.171Z,23.00
2023-10-28T05:48:51.589Z,23.08
2023-10-28T05:51:18.740Z,24.13
2023-10-28T05:53:45.892Z,18.83
2023-10-28T05:56:12.987Z,16.27
2023-10-28T05:58:40.056Z,15.55
2023-10-28T06:01:07.046Z,16.95
2023-10-28T06:03:34.236Z,17.38
2023-10-28T06:06:01.150Z,16.65
2023-10-28T06:08:28.280Z,13.77
2023-10-28T06:10:55.472Z,25.20
2023-10-28T06:13:22.395Z,19.45
2023-10-28T06:15:49.392Z,20.60
2023-10-28T06:18:16.445Z,16.77
2023-10-28T06:20:48.146Z,14.30
2023-10-28T06:23:16.378Z,14.25
2023-10-28T06:25:43.805Z,16.42
2023-10-28T06:28:12.123Z,12.05
2023-10-28T06:30:53.898Z,15.35
2023-10-28T06:33:20.846Z,13.30
2023-10-28T06:35:47.830Z,18.60
2023-10-28T06:38:14.736Z,20.25
2023-10-28T06:40:41.646Z,15.20
2023-10-28T06:43:08.958Z,16.60
2023-10-28T06:45:35.951Z,9.60
2023-10-28T06:48:04.820Z,16.08
2023-10-28T06:50:31.944Z,15.73
2023-10-28T06:53:00.873Z,13.38
2023-10-28T06:55:30.511Z,10.88
2023-10-28T06:57:58.196Z,10.50
2023-10-28T07:00:29.113Z,9.45
2023-10-28T07:03:00.160Z,9.77
2023-10-28T07:05:27.072Z,12.65
2023-10-28T07:07:55.738Z,6.97
2023-10-28T07:10:23.352Z,6.20
2023-10-28T07:12:51.074Z,10.52
2023-10-28T07:15:19.053Z,10.60
2023-10-28T07:17:46.269Z,10.93
2023-10-28T07:20:13.585Z,7.15
2023-10-28T07:22:42.491Z,8.13
2023-10-28T07:25:11.178Z,13.52
2023-10-28T07:27:39.112Z,8.30
2023-10-28T07:30:06.978Z,12.25
2023-10-28T07:32:33.995Z,7.10
2023-10-28T07:35:00.916Z,7.05
2023-10-28T07:37:27.964Z,11.57
2023-10-28T07:39:54.846Z,7.53
2023-10-28T07:42:23.484Z,11.05
2023-10-28T07:44:52.315Z,8.40
2023-10-28T07:47:19.458Z,7.88
2023-10-28T07:49:46.915Z,5.07
2023-10-28T07:52:14.680Z,8.82
2023-10-28T07:54:41.824Z,7.07
2023-10-28T07:57:09.225Z,12.00
2023-10-28T07:59:37.087Z,6.97
2023-10-28T08:02:04.094Z,6.82
2023-10-28T08:04:30.980Z,9.35
2023-10-28T08:06:57.887Z,8.07
2023-10-28T08:09:24.855Z,10.70
2023-10-28T08:11:51.979Z,11.05
2023-10-28T08:14:19.196Z,8.32
2023-10-28T08:16:46.546Z,17.50
2023-10-28T08:19:13.868Z,10.30
2023-10-28T08:21:40.892Z,7.32
2023-10-28T08:24:10.039Z,14.95
2023-10-28T08:26:38.110Z,6.57
2023-10-28T08:29:05.081Z,14.95
2023-10-28T08:31:31.965Z,11.30
2023-10-28T08:33:58.859Z,14.35
2023-10-28T08:36:26.369Z,12.63
2023-10-28T08:38:53.343Z,12.73
2023-10-28T08:41:25.013Z,6.30
2023-10-28T08:43:52.654Z,16.08
2023-10-28T08:46:20.077Z,7.85
2023-10-28T08:48:47.032Z,13.98
2023-10-28T08:51:16.263Z,6.55
2023-10-28T08:53:46.141Z,11.20
2023-10-28T08:56:19.078Z,12.60
2023-10-28T08:58:50.184Z,7.47
2023-10-28T09:01:28.615Z,12.77
2023-10-28T09:04:02.250Z,7.07
2023-10-28T09:06:33.208Z,8.18
2023-10-28T09:09:03.535Z,8.98
2023-10-28T09:11:30.405Z,8.10
2023-10-28T09:13:57.461Z,4.68
2023-10-28T09:16:25.695Z,9.27
2023-10-28T09:18:52.687Z,6.78
2023-10-28T09:21:20.588Z,6.05
2023-10-28T09:23:47.592Z,12.98
2023-10-28T09:26:14.548Z,7.55
2023-10-28T09:28:45.711Z,7.75
2023-10-28T09:31:12.919Z,8.70
2023-10-28T09:33:40.667Z,6.65
2023-10-28T09:36:09.431Z,5.25
2023-10-28T09:38:37.878Z,15.57
2023-10-28T09:41:06.278Z,8.13
2023-10-28T09:43:34.111Z,13.05
2023-10-28T09:46:01.408Z,6.25
2023-10-28T09:48:33.018Z,5.28
2023-10-28T09:51:00.303Z,7.43
2023-10-28T09:53:37.215Z,11.55
2023-10-28T09:56:05.187Z,9.63
2023-10-28T09:58:42.437Z,11.68
2023-10-28T10:01:38.450Z,12.65
2023-10-28T10:04:12.157Z,8.20
2023-10-28T10:06:39.392Z,16.23
2023-10-28T10:09:13.642Z,9.27
2023-10-28T10:11:46.930Z,12.10
2023-10-28T10:14:14.200Z,11.60
2023-10-28T10:16:56.628Z,7.03
2023-10-28T10:19:34.784Z,10.63
2023-10-28T10:22:07.554Z,9.50
2023-10-28T10:24:35.126Z,8.50
2023-10-28T10:27:04.112Z,11.95
2023-10-28T10:29:42.912Z,9.75
2023-10-28T10:32:18.165Z,8.60
2023-10-28T10:34:46.901Z,7.72
2023-10-28T10:37:26.986Z,6.38
2023-10-28T10:39:59.115Z,14.40
2023-10-28T10:42:26.847Z,8.18
2023-10-28T10:44:54.221Z,4.15
2023-10-28T10:47:22.811Z,9.13
2023-10-28T10:49:51.133Z,15.20
2023-10-28T10:52:20.198Z,4.68
2023-10-28T10:54:47.430Z,7.20
2023-10-28T10:57:14.439Z,4.43
2023-10-28T10:59:41.635Z,10.40
2023-10-28T11:02:13.607Z,9.35
2023-10-28T11:04:41.238Z,4.57
2023-10-28T11:07:08.665Z,9.35
2023-10-28T11:09:36.519Z,8.63
2023-10-28T11:12:03.673Z,6.72
2023-10-28T11:14:31.174Z,7.72
2023-10-28T11:16:58.338Z,12.80
2023-10-28T11:19:25.436Z,5.88
2023-10-28T11:21:52.561Z,10.00
2023-10-28T11:24:20.395Z,7.45
2023-10-28T11:26:50.651Z,3.95
2023-10-28T11:29:18.269Z,8.20
2023-10-28T11:31:47.152Z,5.13
2023-10-28T11:34:15.430Z,7.88
2023-10-28T11:36:42.862Z,6.28
2023-10-28T11:39:14.265Z,10.13
2023-10-28T11:41:45.279Z,9.30
2023-10-28T11:44:13.188Z,5.70
2023-10-28T11:46:40.520Z,6.82
2023-10-28T11:49:07.451Z,9.25
2023-10-28T11:51:34.491Z,6.57
2023-10-28T11:54:04.789Z,7.57
2023-10-28T11:56:34.309Z,6.07
2023-10-28T11:59:02.672Z,10.40
2023-10-28T12:01:33.585Z,5.57
2023-10-28T12:04:01.756Z,3.40
2023-10-28T12:06:30.636Z,7.40
2023-10-28T12:08:59.404Z,10.35
2023-10-28T12:11:29.757Z,6.38
2023-10-28T12:13:59.994Z,6.05
2023-10-28T12:16:27.450Z,5.03
2023-10-28T12:18:54.392Z,9.50
2023-10-28T12:21:21.569Z,8.55
2023-10-28T12:23:49.749Z,4.22
2023-10-28T12:26:16.818Z,13.13
2023-10-28T12:28:43.722Z,10.05
2023-10-28T12:31:10.618Z,4.10
2023-10-28T12:33:38.991Z,6.40
2023-10-28T12:36:08.356Z,5.97
2023-10-28T12:38:35.869Z,6.53
2023-10-28T12:41:03.912Z,8.75
2023-10-28T12:43:30.986Z,8.32
2023-10-28T12:45:58.266Z,4.10
2023-10-28T12:48:25.587Z,4.55
2023-10-28T12:50:52.465Z,11.07
2023-10-28T12:53:20.263Z,4.15
2023-10-28T12:55:47.336Z,7.00
2023-10-28T12:58:17.219Z,5.32
2023-10-28T13:00:45.828Z,5.70
2023-10-28T13:03:13.064Z,10.93
2023-10-28T13:05:40.158Z,5.40
2023-10-28T13:08:07.077Z,5.28
2023-10-28T13:10:34.160Z,5.10
2023-10-28T13:13:01.045Z,4.80
2023-10-28T13:15:28.783Z,4.00
2023-10-28T13:17:57.658Z,7.20
2023-10-28T13:20:25.337Z,4.72
2023-10-28T13:22:53.225Z,7.40
2023-10-28T13:25:20.841Z,3.67
2023-10-28T13:27:48.109Z,5.97
2023-10-28T13:30:16.384Z,4.90
2023-10-28T13:32:55.221Z,5.95
2023-10-28T13:35:24.218Z,6.05
2023-10-28T13:37:51.822Z,4.93
2023-10-28T13:40:19.388Z,3.08
2023-10-28T13:42:46.329Z,9.52
2023-10-28T13:45:13.530Z,4.60
2023-10-28T13:47:43.734Z,5.18
2023-10-28T13:50:13.235Z,3.78
2023-10-28T13:52:40.550Z,6.78
2023-10-28T13:55:07.712Z,2.30
2023-10-28T13:57:34.720Z,8.30
2023-10-28T14:00:07.160Z,3.83
2023-10-28T14:02:34.241Z,5.50
2023-10-28T14:05:01.347Z,4.10
2023-10-28T14:07:28.288Z,11.25
2023-10-28T14:09:55.260Z,3.95
2023-10-28T14:12:22.329Z,4.70
2023-10-28T14:14:49.176Z,6.45
2023-10-28T14:17:16.456Z,2.88
2023-10-28T14:19:43.380Z,8.30
2023-10-28T14:22:10.568Z,8.07
2023-10-28T14:24:37.542Z,5.90
2023-10-28T14:27:04.722Z,3.80
2023-10-28T14:29:32.291Z,5.82
2023-10-28T14:31:59.314Z,7.50
2023-10-28T14:34:27.593Z,7.35
2023-10-28T14:36:54.515Z,3.33
2023-10-28T14:39:21.329Z,3.92
2023-10-28T14:41:48.187Z,6.65
2023-10-28T14:44:15.913Z,8.27
2023-10-28T14:46:42.916Z,6.72
2023-10-28T14:49:09.944Z,5.88
2023-10-28T14:51:36.802Z,4.97
2023-10-28T14:54:04.318Z,6.80
2023-10-28T14:56:31.619Z,7.63
2023-10-28T14:58:58.761Z,2.17
2023-10-28T15:01:25.772Z,7.25
2023-10-28T15:03:53.480Z,5.32
2023-10-28T15:06:20.463Z,8.25
2023-10-28T15:08:48.351Z,5.45
2023-10-28T15:11:15.248Z,11.82
2023-10-28T15:13:42.723Z,10.38
2023-10-28T15:16:13.958Z,6.78
2023-10-28T15:18:44.551Z,6.93
2023-10-28T15:21:18.398Z,4.65
2023-10-28T15:23:45.746Z,5.05
2023-10-28T15:26:16.588Z,9.63
2023-10-28T15:28:43.733Z,4.90
2023-10-28T15:31:11.579Z,5.90
2023-10-28T15:33:39.158Z,8.52
2023-10-28T15:36:13.415Z,6.18
2023-10-28T15:38:40.831Z,7.18
2023-10-28T15:41:08.221Z,6.82
2023-10-28T15:43:36.052Z,7.15
2023-10-28T15:46:13.914Z,8.18
2023-10-28T15:48:43.268Z,3.65
2023-10-28T15:51:16.261Z,7.97
2023-10-28T15:53:43.170Z,9.02
2023-10-28T15:56:12.742Z,8.20
2023-10-28T15:58:40.795Z,11.82
2023-10-28T16:01:08.514Z,7.97
2023-10-28T16:03:35.493Z,6.68
2023-10-28T16:06:06.650Z,5.15
2023-10-28T16:08:33.561Z,7.28
2023-10-28T16:11:00.482Z,9.02
2023-10-28T16:13:27.469Z,11.25
2023-10-28T16:15:54.390Z,6.10
2023-10-28T16:18:21.587Z,5.43
2023-10-28T16:20:48.694Z,13.30
2023-10-28T16:23:17.347Z,6.43
2023-10-28T16:25:44.349Z,9.80
2023-10-28T16:28:12.520Z,7.30
2023-10-28T16:30:39.637Z,9.18
2023-10-28T16:33:06.700Z,7.43
2023-10-28T16:35:33.724Z,5.03
2023-10-28T16:38:00.652Z,5.90
2023-10-28T16:40:27.860Z,13.65
2023-10-28T16:42:55.383Z,8.63
2023-10-28T16:45:22.712Z,8.05
2023-10-28T16:47:50.607Z,12.10
2023-10-28T16:50:17.632Z,5.28
2023-10-28T16:52:44.572Z,7.65
2023-10-28T16:55:11.687Z,7.03
2023-10-28T16:57:45.553Z,6.40
2023-10-28T17:00:14.184Z,13.10
2023-10-28T17:02:41.411Z,5.70
2023-10-28T17:05:08.665Z,9.02
2023-10-28T17:07:37.238Z,4.07
2023-10-28T17:10:04.502Z,11.85
2023-10-28T17:12:31.415Z,8.45
2023-10-28T17:14:58.906Z,8.35
2023-10-28T17:17:25.931Z,12.43
2023-10-28T17:19:52.913Z,7.25
2023-10-28T17:22:19.814Z,9.15
2023-10-28T17:24:47.563Z,11.30
2023-10-28T17:27:14.839Z,9.85
2023-10-28T17:29:44.364Z,14.48
2023-10-28T17:32:13.505Z,8.52
2023-10-28T17:34:40.506Z,8.00
2023-10-28T17:37:07.617Z,7.80
2023-10-28T17:39:34.489Z,5.88
2023-10-28T17:42:01.391Z,10.40
2023-10-28T17:44:28.367Z,8.23
2023-10-28T17:46:55.349Z,9.63
2023-10-28T17:49:22.232Z,12.48
2023-10-28T17:51:49.698Z,11.50
2023-10-28T17:54:16.571Z,9.68
2023-10-28T17:56:43.552Z,16.88
2023-10-28T17:59:10.526Z,11.85
2023-10-28T18:01:37.543Z,16.55
2023-10-28T18:04:04.751Z,17.40
2023-10-28T18:06:31.793Z,14.18
2023-10-28T18:09:01.066Z,10.57
2023-10-28T18:11:28.168Z,7.95
2023-10-28T18:13:55.128Z,17.38
2023-10-28T18:16:22.120Z,16.33
2023-10-28T18:18:49.265Z,14.52
2023-10-28T18:21:17.444Z,8.43
2023-10-28T18:23:45.894Z,13.43
2023-10-28T18:26:15.483Z,14.95
2023-10-28T18:28:42.471Z,17.45
2023-10-28T18:31:09.702Z,14.88
2023-10-28T18:33:36.967Z,15.95
2023-10-28T18:36:09.152Z,9.75
2023-10-28T18:38:37.310Z,7.85
2023-10-28T18:41:11.753Z,13.77
2023-10-28T18:46:07.639Z,10.13
2023-10-28T18:48:34.610Z,9.07
2023-10-28T18:51:08.617Z,12.68
2023-10-28T18:53:36.687Z,13.05
2023-10-28T18:56:11.386Z,10.93
2023-10-28T18:58:41.201Z,14.60
2023-10-28T19:01:15.806Z,7.68
2023-10-28T19:03:47.221Z,9.13
2023-10-28T19:06:16.863Z,8.45
2023-10-28T19:08:46.538Z,10.88
2023-10-28T19:11:14.345Z,10.75
2023-10-28T19:13:41.331Z,13.48
2023-10-28T19:16:10.574Z,9.82
2023-10-28T19:18:39.004Z,7.25
2023-10-28T19:21:06.304Z,10.85
2023-10-28T19:23:33.545Z,15.43
2023-10-28T19:26:00.502Z,7.93
2023-10-28T19:28:27.385Z,8.30
2023-10-28T19:30:54.690Z,13.80
2023-10-28T19:33:21.690Z,16.27
2023-10-28T19:35:48.762Z,12.70
2023-10-28T19:38:18.855Z,17.35
2023-10-28T19:40:48.867Z,18.75
2023-10-28T19:43:15.762Z,8.95
2023-10-28T19:45:42.873Z,10.70
2023-10-28T19:48:09.956Z,8.73
2023-10-28T19:50:36.956Z,7.65
2023-10-28T19:53:03.899Z,10.20
2023-10-28T19:55:30.840Z,11.98
2023-10-28T19:57:57.993Z,13.80
2023-10-28T20:00:24.900Z,7.35
2023-10-28T20:02:52.171Z,10.95
2023-10-28T20:05:20.127Z,10.88
2023-10-28T20:07:47.381Z,11.35
2023-10-28T20:10:14.551Z,20.50
2023-10-28T20:12:42.261Z,15.45
2023-10-28T20:15:09.387Z,17.77
2023-10-28T20:17:39.148Z,14.07
2023-10-28T20:20:09.793Z,16.25
2023-10-28T20:22:37.912Z,11.45
2023-10-28T20:25:05.900Z,16.85
2023-10-28T20:27:33.397Z,20.55
2023-10-28T20:30:00.356Z,15.40
2023-10-28T20:32:27.916Z,10.20
2023-10-28T20:34:55.284Z,7.50
2023-10-28T20:37:23.047Z,7.03
2023-10-28T20:39:50.226Z,9.75
2023-10-28T20:42:18.681Z,3.45
2023-10-28T20:44:45.844Z,7.95
2023-10-28T20:47:12.912Z,14.52
2023-10-28T20:49:40.690Z,13.00
2023-10-28T20:52:07.673Z,15.00
2023-10-28T20:54:34.595Z,11.57
2023-10-28T20:57:01.654Z,14.05
2023-10-28T20:59:30.248Z,12.68
2023-10-28T21:01:57.308Z,14.82
2023-10-28T21:04:24.161Z,8.77
2023-10-28T21:06:51.030Z,12.00
2023-10-28T21:09:17.899Z,10.25
2023-10-28T21:11:44.879Z,7.95
2023-10-28T21:14:11.834Z,9.43
2023-10-28T21:16:39.936Z,11.25
2023-10-28T21:19:07.995Z,8.32
2023-10-28T21:21:34.885Z,13.27
2023-10-28T21:24:04.880Z,7.88
2023-10-28T21:26:32.827Z,7.57
2023-10-28T21:28:59.774Z,7.85
2023-10-28T21:31:26.815Z,7.90
2023-10-28T21:33:53.713Z,4.90
2023-10-28T21:36:20.872Z,10.63
2023-10-28T21:38:47.800Z,9.05
2023-10-28T21:41:15.858Z,5.32
2023-10-28T21:43:43.200Z,11.95
2023-10-28T21:46:10.345Z,14.50
2023-10-28T21:48:38.779Z,10.13
2023-10-28T21:51:08.821Z,11.32
2023-10-28T21:53:36.902Z,7.88
2023-10-28T21:56:06.112Z,6.22
2023-10-28T21:58:35.156Z,6.18
2023-10-28T22:01:02.433Z,7.65
2023-10-28T22:03:29.651Z,5.45
2023-10-28T22:05:56.839Z,5.43
2023-10-28T22:08:23.947Z,5.10
2023-10-28T22:10:50.988Z,5.95
2023-10-28T22:13:17.987Z,5.53
2023-10-28T22:15:45.251Z,6.05
2023-10-28T22:18:14.792Z,6.25
2023-10-28T22:20:43.131Z,6.15
2023-10-28T22:23:10.357Z,7.78
2023-10-28T22:25:40.949Z,11.15
2023-10-28T22:28:16.326Z,4.22
2023-10-28T22:30:45.529Z,4.55
2023-10-28T22:33:12.654Z,4.45
2023-10-28T22:35:39.592Z,3.30
2023-10-28T22:38:06.469Z,3.72
2023-10-28T22:40:33.686Z,5.18
2023-10-28T22:43:01.182Z,9.10
2023-10-28T22:48:27.255Z,8.65
2023-10-28T22:50:54.228Z,6.97
2023-10-28T22:53:21.127Z,4.82
2023-10-28T22:55:47.987Z,6.35
2023-10-28T22:58:15.317Z,8.98
2023-10-28T23:00:42.259Z,9.55
2023-10-28T23:03:10.352Z,7.32
2023-10-28T23:05:37.980Z,13.07
2023-10-28T23:08:05.084Z,5.90
2023-10-28T23:10:32.137Z,6.75
2023-10-28T23:12:59.458Z,5.53
2023-10-28T23:15:27.187Z,5.57
2023-10-28T23:17:54.394Z,7.07
2023-10-28T23:20:21.438Z,9.43
2023-10-28T23:22:51.968Z,5.40
2023-10-28T23:25:18.904Z,4.75
2023-10-28T23:27:45.837Z,8.27
2023-10-28T23:30:13.178Z,5.95
2023-10-28T23:32:40.575Z,6.15
2023-10-28T23:35:07.718Z,5.63
2023-10-28T23:37:34.655Z,9.20
2023-10-28T23:40:02.344Z,5.75
2023-10-28T23:42:29.367Z,4.38
2023-10-28T23:44:56.345Z,3.70
2023-10-28T23:47:23.286Z,5.10
2023-10-28T23:49:50.207Z,5.63
2023-10-28T23:52:17.437Z,4.32
2023-10-28T23:54:44.289Z,4.72
2023-10-28T23:57:11.251Z,3.47
2023-10-28T23:59:38.795Z,10.52
